Time;durP1;ratioP1;P1;durP2;ratioP2;P2;SDS_P1;SDS_P2;PMS_P1;PMS_P2;Temp;Humidity;BMP_temperature;BMP_pressure;BME280_temperature;BME280_humidity;BME280_pressure;Samples;Min_cycle;Max_cycle;Signal;HPM_P1;HPM_P2
2023/12/20 00:02:02;;;;;;;23.65;13.68;;;;;;;29.64;59.22;101049.38;4949503;28;69644;-40
2023/12/20 00:04:33;;;;;;;25.67;12.40;;;;;;;29.65;57.11;101045.66;4956249;28;66214;-39
2023/12/20 00:07:03;;;;;;;22.63;12.18;;;;;;;29.65;57.71;101053.78;4968939;28;70665;-39
2023/12/20 00:09:33;;;;;;;17.27;11.25;;;;;;;29.72;57.42;101051.06;4981654;28;66162;-39
2023/12/20 00:12:03;;;;;;;16.08;11.82;;;;;;;29.66;57.60;101047.31;4978361;28;69988;-40
2023/12/20 00:14:33;;;;;;;18.10;11.77;;;;;;;29.69;59.07;101043.38;4961253;28;65937;-39
2023/12/20 00:17:03;;;;;;;19.67;12.27;;;;;;;29.82;57.36;101056.88;4970499;28;70269;-39
2023/12/20 00:19:33;;;;;;;17.70;11.30;;;;;;;29.87;57.80;101070.63;4976415;28;65954;-39
2023/12/20 00:22:04;;;;;;;19.90;12.02;;;;;;;29.89;58.22;101073.09;4972939;28;69879;-39
2023/12/20 00:24:34;;;;;;;20.45;11.80;;;;;;;29.91;57.92;101081.84;4962871;28;66262;-39
2023/12/20 00:27:04;;;;;;;19.02;11.52;;;;;;;29.60;58.12;101037.31;4972350;28;70326;-39
2023/12/20 00:29:34;;;;;;;16.75;11.27;;;;;;;29.87;59.50;101092.25;4979712;28;66442;-39
2023/12/20 00:32:05;;;;;;;15.05;10.80;;;;;;;29.94;58.36;101100.34;4978848;28;70384;-39
2023/12/20 00:34:35;;;;;;;22.02;11.27;;;;;;;29.94;58.88;101097.66;4967043;28;66123;-39
2023/12/20 00:37:05;;;;;;;25.42;11.95;;;;;;;30.01;58.24;101095.78;4980364;28;70444;-39
2023/12/20 00:39:35;;;;;;;16.88;10.82;;;;;;;29.99;58.99;101097.84;4967849;28;66508;-39
2023/12/20 00:42:06;;;;;;;20.30;11.43;;;;;;;29.95;59.95;101099.28;4959454;28;69888;-40
2023/12/20 00:44:36;;;;;;;14.68;10.48;;;;;;;30.03;58.06;101096.38;4956737;28;64996;-40
2023/12/20 00:47:06;;;;;;;23.17;12.02;;;;;;;29.92;60.37;101105.13;4954697;28;70429;-39
2023/12/20 00:49:36;;;;;;;22.25;11.38;;;;;;;29.94;58.11;101100.34;4968256;28;66383;-40
2023/12/20 00:52:07;;;;;;;19.50;10.85;;;;;;;29.96;59.30;101106.38;4940100;28;70628;-40
2023/12/20 00:54:37;;;;;;;23.48;10.75;;;;;;;30.02;58.41;101116.38;4964235;28;66177;-39
2023/12/20 00:57:07;;;;;;;18.02;11.25;;;;;;;29.84;58.24;101082.69;4947701;28;70077;-39
2023/12/20 00:59:37;;;;;;;14.45;9.95;;;;;;;30.01;58.73;101112.00;4974436;28;66273;-38
2023/12/20 01:02:07;;;;;;;15.20;10.20;;;;;;;30.08;58.18;101117.41;4979862;28;70201;-38
2023/12/20 01:04:37;;;;;;;17.33;9.93;;;;;;;29.96;59.64;101115.34;4966860;28;66430;-39
2023/12/20 01:07:08;;;;;;;15.63;9.27;;;;;;;30.16;57.25;101122.59;4952230;28;69611;-38
2023/12/20 01:09:38;;;;;;;11.65;9.00;;;;;;;30.20;56.78;101123.84;4947413;28;66105;-38
2023/12/20 01:12:08;;;;;;;9.38;8.57;;;;;;;30.06;56.58;101095.97;4968264;28;71114;-39
2023/12/20 01:14:39;;;;;;;10.20;8.88;;;;;;;30.15;56.43;101102.00;4968528;28;65375;-38
2023/12/20 01:17:09;;;;;;;9.40;8.02;;;;;;;30.13;56.40;101098.69;4972509;28;70287;-38
2023/12/20 01:19:39;;;;;;;9.23;8.27;;;;;;;30.30;56.05;101112.63;4963477;28;66316;-38
2023/12/20 01:22:09;;;;;;;10.52;9.02;;;;;;;30.33;56.67;101112.19;4967610;28;69400;-39
2023/12/20 01:24:39;;;;;;;9.35;8.52;;;;;;;30.35;56.19;101119.06;4956312;28;65594;-39
2023/12/20 01:27:09;;;;;;;14.05;9.18;;;;;;;30.38;55.94;101120.53;4963551;28;69686;-38
2023/12/20 01:29:39;;;;;;;10.13;8.93;;;;;;;30.34;56.34;101113.84;4968538;28;65570;-39
2023/12/20 01:32:09;;;;;;;10.15;8.27;;;;;;;30.39;55.98;101117.59;4977919;28;70000;-38
2023/12/20 01:34:39;;;;;;;13.27;9.20;;;;;;;30.28;56.12;101094.75;4966695;28;65834;-39
2023/12/20 01:37:10;;;;;;;10.00;8.63;;;;;;;30.38;56.45;101109.69;4960994;28;70363;-39
2023/12/20 01:39:40;;;;;;;9.93;8.27;;;;;;;30.42;55.86;101110.91;4964745;28;65659;-39
2023/12/20 01:42:10;;;;;;;9.40;8.45;;;;;;;30.45;56.20;101110.50;4966958;28;70588;-39
2023/12/20 01:44:40;;;;;;;9.68;8.73;;;;;;;30.46;56.14;101120.28;4965848;28;65882;-39
2023/12/20 01:47:10;;;;;;;8.05;7.22;;;;;;;30.47;55.86;101119.25;4952344;28;69960;-39
2023/12/20 01:49:40;;;;;;;8.32;7.63;;;;;;;30.45;56.07;101102.38;4957056;28;66263;-39
2023/12/20 01:52:10;;;;;;;9.02;8.32;;;;;;;30.49;55.97;101103.63;4936870;28;69122;-39
2023/12/20 01:54:42;;;;;;;9.75;8.38;;;;;;;30.49;56.44;101119.88;4944514;28;65085;-39
2023/12/20 01:57:13;;;;;;;8.30;7.60;;;;;;;30.50;55.93;101113.41;4961048;28;68910;-39
2023/12/20 01:59:44;;;;;;;11.70;8.02;;;;;;;30.55;56.40;101110.91;4963135;28;65839;-39
2023/12/20 02:02:14;;;;;;;8.27;7.47;;;;;;;30.27;55.95;101070.56;4965884;28;69986;-38
2023/12/20 02:04:45;;;;;;;8.52;7.55;;;;;;;30.56;56.18;101120.66;4970786;28;66247;-39
2023/12/20 02:07:16;;;;;;;7.88;7.07;;;;;;;30.53;56.24;101107.56;4966860;28;70135;-47
2023/12/20 02:09:47;;;;;;;8.37;7.67;;;;;;;30.54;56.10;101117.38;4960200;28;66279;-39
2023/12/20 02:12:18;;;;;;;8.80;8.10;;;;;;;30.59;56.53;101120.28;4969475;28;69830;-38
2023/12/20 02:14:49;;;;;;;8.27;7.68;;;;;;;30.57;56.66;101114.22;4973221;28;65749;-39
2023/12/20 02:17:19;;;;;;;8.80;7.95;;;;;;;30.61;56.32;101120.88;4972616;28;70483;-42
2023/12/20 02:19:50;;;;;;;9.45;7.82;;;;;;;30.58;56.20;101112.34;4956848;28;65917;-38
2023/12/20 02:22:20;;;;;;;8.73;7.90;;;;;;;30.62;56.06;101108.16;4964391;28;69433;-38
2023/12/20 02:24:50;;;;;;;8.50;7.85;;;;;;;30.60;56.37;101100.25;4968902;28;66217;-38
2023/12/20 02:27:22;;;;;;;9.60;8.48;;;;;;;30.63;56.24;101097.13;4956197;28;70548;-39
2023/12/20 02:29:52;;;;;;;8.00;7.27;;;;;;;30.66;56.55;101110.22;4965242;28;65571;-43
2023/12/20 02:32:26;;;;;;;8.63;7.72;;;;;;;30.28;56.10;101028.94;4962154;28;70257;-39
2023/12/20 02:34:56;;;;;;;8.98;7.47;;;;;;;30.66;56.62;101102.13;4961034;28;66305;-39
2023/12/20 02:37:26;;;;;;;8.43;7.38;;;;;;;30.70;56.26;101097.09;4962435;28;70877;-39
2023/12/20 02:39:56;;;;;;;8.50;7.80;;;;;;;30.71;56.06;101096.88;4966041;28;65573;-39
2023/12/20 02:42:26;;;;;;;8.98;7.93;;;;;;;30.73;56.19;101085.84;4968200;28;69497;-39
2023/12/20 02:44:56;;;;;;;7.95;7.18;;;;;;;30.75;56.05;101094.56;4966869;28;66534;-39
2023/12/20 02:47:26;;;;;;;8.52;7.72;;;;;;;30.76;56.50;101084.56;4969918;28;70473;-39
2023/12/20 02:49:56;;;;;;;9.13;7.65;;;;;;;30.76;56.31;101089.97;4950463;28;65410;-39
2023/12/20 02:52:29;;;;;;;11.55;8.48;;;;;;;30.77;56.15;101107.91;4949863;28;70027;-39
2023/12/20 02:54:59;;;;;;;7.30;6.80;;;;;;;30.81;56.55;101092.91;4946460;28;65253;-39
2023/12/20 02:57:29;;;;;;;8.98;8.18;;;;;;;30.81;56.38;101087.50;4966853;28;70685;-39
2023/12/20 02:59:59;;;;;;;8.65;7.82;;;;;;;30.77;56.45;101075.41;4969206;28;66646;-38
2023/12/20 03:02:29;;;;;;;9.98;8.05;;;;;;;30.86;56.04;101093.09;4963595;28;70302;-39
2023/12/20 03:05:00;;;;;;;8.55;7.70;;;;;;;30.85;56.02;101086.88;4976656;28;66463;-38
2023/12/20 03:07:30;;;;;;;7.78;7.13;;;;;;;30.85;56.70;101088.75;4954535;28;69023;-39
2023/12/20 03:10:01;;;;;;;7.72;7.18;;;;;;;30.89;56.05;101098.91;4947980;28;66204;-39
2023/12/20 03:12:48;;;;;;;8.55;7.60;;;;;;;30.87;56.05;101075.81;4958182;28;69494;-39
2023/12/20 03:15:20;;;;;;;7.65;6.95;;;;;;;30.94;56.63;101073.91;4943925;28;43264;-38
2023/12/20 03:17:50;;;;;;;8.05;7.07;;;;;;;30.96;56.33;101079.94;4959551;28;70480;-39
2023/12/20 03:20:20;;;;;;;8.23;7.47;;;;;;;30.98;56.50;101072.44;4945844;28;66748;-38
2023/12/20 03:22:50;;;;;;;8.05;7.25;;;;;;;30.90;56.09;101053.72;4974669;28;69983;-38
2023/12/20 03:25:20;;;;;;;9.05;7.63;;;;;;;31.03;56.43;101069.06;4952473;28;65904;-38
2023/12/20 03:27:51;;;;;;;7.63;7.05;;;;;;;31.03;56.00;101058.22;4960837;28;70866;-39
2023/12/20 03:30:21;;;;;;;8.65;7.85;;;;;;;31.00;56.06;101059.50;4945617;28;66739;-38
2023/12/20 03:32:51;;;;;;;7.40;6.82;;;;;;;31.08;56.10;101059.22;4964564;28;69940;-39
2023/12/20 03:35:22;;;;;;;10.75;7.18;;;;;;;31.09;56.16;101060.91;4969193;28;65931;-40
2023/12/20 03:37:53;;;;;;;7.57;6.83;;;;;;;31.10;56.06;101054.44;4957815;28;69910;-39
2023/12/20 03:40:23;;;;;;;7.88;7.13;;;;;;;31.06;56.51;101036.94;4974149;28;66110;-38
2023/12/20 03:42:53;;;;;;;7.65;7.05;;;;;;;31.08;56.11;101029.44;4944242;28;69767;-39
2023/12/20 03:45:23;;;;;;;7.82;7.20;;;;;;;31.14;56.50;101039.38;4962429;28;66297;-39
2023/12/20 03:47:55;;;;;;;7.55;6.90;;;;;;;31.20;56.31;101034.16;4957209;28;70090;-41
2023/12/20 03:50:29;;;;;;;8.10;7.40;;;;;;;31.11;56.29;101028.16;4966469;28;66786;-49
2023/12/20 03:52:59;;;;;;;6.97;6.50;;;;;;;31.25;56.34;101034.31;4960571;28;69989;-39
2023/12/20 03:55:29;;;;;;;6.15;5.65;;;;;;;31.23;56.48;101025.56;4976166;28;67339;-39
2023/12/20 03:57:59;;;;;;;7.30;6.55;;;;;;;31.21;56.30;101019.56;4970844;28;69526;-39
2023/12/20 04:00:30;;;;;;;6.53;6.00;;;;;;;31.29;55.89;101030.97;4962292;28;66355;-39
2023/12/20 04:03:00;;;;;;;7.28;6.13;;;;;;;31.34;55.98;101033.84;4955367;28;70213;-39
2023/12/20 04:05:30;;;;;;;7.70;6.32;;;;;;;31.35;56.21;101027.38;4971967;28;66198;-39
2023/12/20 04:08:01;;;;;;;7.28;6.78;;;;;;;31.39;56.17;101025.06;4965454;28;70390;-39
2023/12/20 04:10:32;;;;;;;7.50;6.72;;;;;;;31.29;56.42;100997.63;4952550;28;65445;-40
2023/12/20 04:13:02;;;;;;;6.85;6.18;;;;;;;31.27;56.17;100984.28;4965540;28;70432;-38
2023/12/20 04:15:32;;;;;;;7.43;6.65;;;;;;;31.32;56.23;100986.34;4972352;28;65647;-39
2023/12/20 04:18:03;;;;;;;6.28;5.88;;;;;;;31.48;55.92;100999.38;4949882;28;69888;-40
2023/12/20 04:20:33;;;;;;;6.65;6.15;;;;;;;31.50;56.08;100994.53;4969855;28;66010;-39
2023/12/20 04:23:04;;;;;;;6.22;5.82;;;;;;;31.51;56.42;100990.78;4957707;28;69660;-39
2023/12/20 04:25:35;;;;;;;6.35;5.75;;;;;;;31.44;56.00;100973.75;4951203;28;66140;-38
2023/12/20 04:28:05;;;;;;;6.32;5.85;;;;;;;31.57;56.02;100995.31;4963128;28;70378;-41
2023/12/20 04:30:35;;;;;;;5.95;5.45;;;;;;;31.57;55.92;100979.06;4972191;28;65821;-39
2023/12/20 04:33:05;;;;;;;6.35;5.95;;;;;;;31.63;56.01;100976.50;4959061;28;69042;-39
2023/12/20 04:35:36;;;;;;;6.93;6.40;;;;;;;31.65;55.98;100974.38;4952729;28;66116;-39
2023/12/20 04:38:06;;;;;;;6.30;5.78;;;;;;;31.67;55.74;100972.28;4962503;28;70098;-40
2023/12/20 04:40:36;;;;;;;6.43;5.82;;;;;;;31.68;56.02;100968.50;4973146;28;66110;-39
2023/12/20 04:43:06;;;;;;;6.07;5.55;;;;;;;31.65;55.98;100958.97;4969464;28;69069;-39
2023/12/20 04:45:36;;;;;;;6.35;5.85;;;;;;;31.74;56.01;100962.22;4972149;28;66164;-38
2023/12/20 04:48:07;;;;;;;6.72;6.13;;;;;;;31.72;56.01;100956.16;4955377;28;70434;-39
2023/12/20 04:50:37;;;;;;;6.60;6.00;;;;;;;31.75;55.97;100959.25;4970401;28;66572;-39
2023/12/20 04:53:07;;;;;;;6.53;5.90;;;;;;;31.69;56.25;100943.06;4965509;28;70540;-39
2023/12/20 04:55:37;;;;;;;6.57;5.97;;;;;;;31.77;55.78;100934.63;4963565;28;65966;-40
2023/12/20 04:58:07;;;;;;;6.13;5.65;;;;;;;31.80;55.95;100935.00;4954929;28;70778;-40
2023/12/20 05:00:37;;;;;;;6.00;5.50;;;;;;;31.86;55.79;100937.88;4976284;28;65917;-40
2023/12/20 05:03:07;;;;;;;6.05;5.55;;;;;;;31.69;55.83;100908.63;4957722;28;68914;-40
2023/12/20 05:05:36;;;;;;;5.82;5.35;;;;;;;31.80;55.97;100907.06;4966098;28;65375;-39
2023/12/20 05:08:07;;;;;;;5.47;5.07;;;;;;;31.92;55.81;100921.53;4976166;28;69405;-39
2023/12/20 05:10:37;;;;;;;6.38;5.78;;;;;;;31.93;55.91;100915.06;4962196;28;66505;-40
2023/12/20 05:13:07;;;;;;;6.90;6.20;;;;;;;31.89;56.04;100905.69;4942379;28;70428;-39
2023/12/20 05:15:37;;;;;;;6.00;5.50;;;;;;;31.97;55.90;100912.72;4967155;28;65728;-39
2023/12/20 05:18:07;;;;;;;6.22;5.38;;;;;;;31.99;55.93;100911.44;4952394;28;70001;-39
2023/12/20 05:20:37;;;;;;;5.10;4.80;;;;;;;32.00;55.75;100902.25;4974567;28;66190;-39
2023/12/20 05:23:08;;;;;;;5.47;5.07;;;;;;;32.02;55.91;100892.00;4938815;28;70227;-40
2023/12/20 05:25:38;;;;;;;9.52;5.20;;;;;;;31.97;55.66;100881.00;4966410;28;66605;-39
2023/12/20 05:28:08;;;;;;;5.53;5.13;;;;;;;32.05;55.79;100888.00;4976904;28;69482;-40
2023/12/20 05:30:39;;;;;;;5.47;5.07;;;;;;;32.05;55.90;100877.97;4968202;28;66019;-38
2023/12/20 05:33:09;;;;;;;6.07;5.40;;;;;;;32.13;55.84;100878.72;4954718;28;70423;-39
2023/12/20 05:35:39;;;;;;;5.40;4.90;;;;;;;32.15;55.85;100871.16;4947607;28;66218;-39
2023/12/20 05:38:09;;;;;;;5.15;4.70;;;;;;;32.10;55.64;100852.06;4967512;28;69570;-40
2023/12/20 05:40:39;;;;;;;4.60;4.30;;;;;;;32.20;55.67;100874.03;4975817;28;66523;-39
2023/12/20 05:43:09;;;;;;;5.38;5.03;;;;;;;32.23;55.76;100868.13;4967767;28;69812;-39
2023/12/20 05:45:39;;;;;;;4.70;4.40;;;;;;;32.24;55.29;100862.50;4957919;28;66463;-40
2023/12/20 05:48:11;;;;;;;4.75;4.35;;;;;;;32.26;55.81;100856.81;4964899;28;69751;-40
2023/12/20 05:50:41;;;;;;;5.30;4.90;;;;;;;32.26;55.81;100852.25;4977894;28;65894;-40
2023/12/20 05:53:11;;;;;;;5.43;5.05;;;;;;;32.28;55.55;100843.84;4947696;28;70592;-40
2023/12/20 05:55:41;;;;;;;4.95;4.32;;;;;;;32.33;55.73;100851.31;4973449;28;65418;-40
2023/12/20 05:58:11;;;;;;;4.95;4.45;;;;;;;32.35;55.51;100849.19;4959687;28;69743;-40
2023/12/20 06:00:41;;;;;;;4.72;4.32;;;;;;;32.38;55.65;100843.31;4963824;28;66694;-39
2023/12/20 06:03:11;;;;;;;5.13;4.78;;;;;;;32.35;55.38;100828.31;4976094;28;70154;-39
2023/12/20 06:05:41;;;;;;;5.85;5.00;;;;;;;32.35;55.36;100817.44;4982251;28;66776;-39
2023/12/20 06:08:11;;;;;;;5.07;4.68;;;;;;;32.45;55.33;100833.16;4979632;28;70345;-39
2023/12/20 06:10:41;;;;;;;5.18;4.68;;;;;;;32.47;55.50;100826.47;4964282;28;66621;-39
2023/12/20 06:13:13;;;;;;;4.57;4.22;;;;;;;32.39;55.25;100805.06;4975065;28;69441;-39
2023/12/20 06:15:43;;;;;;;5.30;4.00;;;;;;;32.45;55.66;100806.81;4964791;28;66197;-39
2023/12/20 06:18:13;;;;;;;4.88;4.47;;;;;;;32.53;55.20;100813.03;4951671;28;69524;-40
2023/12/20 06:20:43;;;;;;;4.70;4.05;;;;;;;32.52;55.25;100800.53;4963141;28;66789;-42
2023/12/20 06:23:14;;;;;;;4.55;4.25;;;;;;;32.57;55.23;100815.06;4969515;28;70399;-40
2023/12/20 06:25:44;;;;;;;5.10;4.32;;;;;;;32.61;55.09;100807.25;4963005;28;66914;-39
2023/12/20 06:28:14;;;;;;;4.90;3.83;;;;;;;32.58;55.32;100791.44;4963420;28;70023;-40
2023/12/20 06:30:45;;;;;;;4.57;4.15;;;;;;;32.63;55.16;100792.38;4962026;28;67124;-39
2023/12/20 06:33:16;;;;;;;4.57;4.18;;;;;;;32.60;55.00;100786.59;4979664;28;69590;-40
2023/12/20 06:35:46;;;;;;;5.22;4.72;;;;;;;32.68;55.11;100795.22;4951220;28;66764;-40
2023/12/20 06:38:16;;;;;;;6.30;4.18;;;;;;;32.71;54.86;100793.94;4949901;28;71295;-40
2023/12/20 06:40:46;;;;;;;4.28;3.97;;;;;;;32.67;55.11;100781.88;4951935;28;65935;-39
2023/12/20 06:43:16;;;;;;;3.83;3.53;;;;;;;32.70;55.12;100776.78;4960656;28;69489;-40
2023/12/20 06:46:06;;;;;;;3.97;3.55;;;;;;;32.65;54.90;100764.97;4964180;28;65949;-40
2023/12/20 06:48:36;;;;;;;4.07;3.80;;;;;;;32.76;55.13;100775.00;4936288;28;69325;-40
2023/12/20 06:51:06;;;;;;;4.22;3.92;;;;;;;32.70;54.70;100751.53;4950104;28;67031;-39
2023/12/20 06:53:36;;;;;;;4.43;4.10;;;;;;;32.76;55.01;100764.16;4946333;28;69212;-40
2023/12/20 06:56:07;;;;;;;4.40;4.00;;;;;;;32.85;54.85;100772.78;4963611;28;66911;-39
2023/12/20 06:58:38;;;;;;;3.92;3.63;;;;;;;32.82;55.04;100765.94;4963020;28;69508;-40
2023/12/20 07:01:12;;;;;;;3.63;3.33;;;;;;;32.88;54.77;100767.72;4977815;28;66383;-39
2023/12/20 07:03:43;;;;;;;4.25;3.88;;;;;;;32.89;54.88;100768.53;4977990;28;70404;-39
2023/12/20 07:06:16;;;;;;;3.60;3.30;;;;;;;32.86;54.31;100764.41;4967182;28;65152;-40
2023/12/20 07:08:46;;;;;;;4.13;3.72;;;;;;;32.78;54.94;100739.47;4944897;28;70225;-39
2023/12/20 07:11:16;;;;;;;4.28;3.78;;;;;;;32.94;54.83;100765.94;4974629;28;66770;-39
2023/12/20 07:13:46;;;;;;;4.18;3.88;;;;;;;32.99;54.81;100765.19;4967053;28;70642;-39
2023/12/20 07:16:17;;;;;;;3.95;3.65;;;;;;;32.99;54.70;100757.06;4955960;28;66424;-39
2023/12/20 07:18:48;;;;;;;5.22;3.40;;;;;;;32.99;54.61;100747.03;4963497;28;70175;-41
2023/12/20 07:21:18;;;;;;;4.80;4.32;;;;;;;32.97;54.78;100743.72;4973809;28;66950;-39
2023/12/20 07:23:48;;;;;;;3.78;3.47;;;;;;;32.95;54.89;100729.53;4946413;28;70290;-44
2023/12/20 07:26:19;;;;;;;3.85;3.55;;;;;;;33.05;54.72;100743.38;4971808;28;66563;-40
2023/12/20 07:28:49;;;;;;;3.50;3.20;;;;;;;33.09;54.75;100741.00;4964412;28;70611;-40
2023/12/20 07:31:19;;;;;;;3.30;3.00;;;;;;;33.10;54.46;100731.81;4979258;28;66970;-39
2023/12/20 07:33:49;;;;;;;3.88;3.50;;;;;;;33.05;54.62;100718.09;4960871;28;70651;-39
2023/12/20 07:36:21;;;;;;;3.85;3.55;;;;;;;33.16;54.49;100728.13;4965578;28;66525;-40
2023/12/20 07:38:51;;;;;;;3.72;3.47;;;;;;;33.15;54.90;100732.75;4979832;28;69970;-40
2023/12/20 07:41:21;;;;;;;4.00;3.30;;;;;;;33.18;54.53;100717.00;4971670;28;66746;-39
2023/12/20 07:43:52;;;;;;;4.18;3.78;;;;;;;33.20;54.62;100723.84;4965999;28;70524;-39
2023/12/20 07:46:23;;;;;;;3.63;3.30;;;;;;;33.19;54.65;100710.53;4964440;28;66651;-39
2023/12/20 07:48:53;;;;;;;3.30;3.10;;;;;;;33.23;54.62;100715.22;4960643;28;69412;-40
2023/12/20 07:51:24;;;;;;;2.95;2.75;;;;;;;33.25;54.51;100707.66;4946905;28;66074;-39
2023/12/20 07:53:54;;;;;;;3.17;2.97;;;;;;;33.29;54.65;100708.00;4944240;28;69792;-40
2023/12/20 07:56:25;;;;;;;3.20;2.90;;;;;;;33.32;54.46;100705.63;4957353;28;66244;-41
2023/12/20 07:58:54;;;;;;;3.60;3.30;;;;;;;33.35;54.65;100707.88;4966163;28;69726;-39
2023/12/20 08:01:27;;;;;;;4.07;3.00;;;;;;;33.38;54.39;100701.13;4966697;28;65518;-40
2023/12/20 08:03:57;;;;;;;4.07;3.00;;;;;;;33.36;54.24;100701.34;4953298;28;69693;-40
2023/12/20 08:06:27;;;;;;;3.63;2.45;;;;;;;33.43;54.64;100703.09;4967534;28;66418;-39
2023/12/20 08:08:58;;;;;;;3.25;3.00;;;;;;;33.46;54.55;100694.44;4952721;28;70034;-39
2023/12/20 08:11:35;;;;;;;2.95;2.75;;;;;;;33.44;54.27;100699.34;4964590;28;65984;-39
2023/12/20 08:14:05;;;;;;;3.20;3.00;;;;;;;33.51;54.29;100705.44;4964540;28;69838;-39
2023/12/20 08:16:35;;;;;;;2.97;2.70;;;;;;;33.53;54.23;100708.78;4950455;28;66618;-39
2023/12/20 08:19:06;;;;;;;2.92;2.72;;;;;;;33.56;54.22;100697.41;4948923;28;70376;-39
2023/12/20 08:21:36;;;;;;;3.42;3.00;;;;;;;33.56;54.33;100703.66;4948190;28;66141;-39
2023/12/20 08:24:08;;;;;;;2.78;2.55;;;;;;;33.50;54.25;100684.75;4960773;28;70371;-39
2023/12/20 08:26:38;;;;;;;3.85;2.78;;;;;;;33.62;54.40;100701.88;4960880;28;65079;-40
2023/12/20 08:29:08;;;;;;;2.83;2.63;;;;;;;33.63;54.09;100695.38;4945928;28;70117;-39
2023/12/20 08:31:38;;;;;;;3.78;2.85;;;;;;;33.66;54.18;100703.06;4965595;28;65401;-40
2023/12/20 08:34:08;;;;;;;3.92;2.65;;;;;;;33.60;53.90;100687.72;4960175;28;70127;-39
2023/12/20 08:36:38;;;;;;;2.72;2.50;;;;;;;33.70;54.26;100706.91;4946660;28;65768;-39
2023/12/20 08:39:09;;;;;;;2.90;2.67;;;;;;;33.70;54.05;100696.03;4942559;28;69714;-40
2023/12/20 08:41:39;;;;;;;3.00;2.67;;;;;;;33.73;54.16;100708.31;4967815;28;66336;-39
2023/12/20 08:44:10;;;;;;;2.72;2.50;;;;;;;33.65;54.16;100698.66;4959732;28;69512;-39
2023/12/20 08:46:40;;;;;;;2.75;2.55;;;;;;;33.76;53.75;100735.88;4943598;28;65934;-39
2023/12/20 08:49:10;;;;;;;2.95;2.67;;;;;;;33.75;53.93;100734.22;4973879;28;69322;-39
2023/12/20 08:51:41;;;;;;;5.80;2.83;;;;;;;33.78;53.77;100735.63;4962513;28;66811;-39
2023/12/20 08:54:13;;;;;;;2.10;2.00;;;;;;;33.71;53.86;100727.63;4943909;28;70044;-38
2023/12/20 08:56:43;;;;;;;5.93;2.70;;;;;;;33.79;54.10;100740.84;4972392;28;66641;-39
2023/12/20 08:59:14;;;;;;;6.90;2.67;;;;;;;33.70;54.01;100731.41;4946027;28;69055;-38
2023/12/20 09:01:44;;;;;;;5.32;3.03;;;;;;;33.81;53.87;100755.00;4976289;28;65841;-39
2023/12/20 09:04:14;;;;;;;4.88;2.38;;;;;;;33.81;53.72;100760.44;4965173;28;70065;-39
2023/12/20 09:06:44;;;;;;;11.02;3.40;;;;;;;33.83;54.44;100773.00;4975424;28;66270;-40
2023/12/20 09:09:14;;;;;;;7.97;2.60;;;;;;;33.72;54.15;100750.22;4969888;28;70544;-40
2023/12/20 09:11:46;;;;;;;4.95;3.08;;;;;;;33.84;54.14;100758.31;4947930;28;65091;-39
2023/12/20 09:14:16;;;;;;;;;;;;;;;33.62;54.82;100748.09;4954200;28;70035;-40
2023/12/20 09:16:46;;;;;;;7.80;2.47;;;;;;;33.76;54.44;100735.88;4956830;28;65459;-40
2023/12/20 09:19:17;;;;;;;4.00;2.78;;;;;;;33.70;54.11;100719.69;4965511;28;69689;-40
2023/12/20 09:21:47;;;;;;;4.15;2.67;;;;;;;33.82;54.33;100744.94;4954578;28;66293;-39
2023/12/20 09:24:18;;;;;;;6.50;2.88;;;;;;;33.79;54.58;100734.56;4960514;28;70146;-40
2023/12/20 09:26:48;;;;;;;3.45;2.92;;;;;;;33.78;54.65;100747.34;4945369;28;66606;-38
2023/12/20 09:29:18;;;;;;;2.53;2.33;;;;;;;33.76;54.50;100746.75;4942827;28;70138;-40
2023/12/20 09:31:49;;;;;;;2.63;2.30;;;;;;;33.69;55.94;100746.09;4967002;28;66816;-39
2023/12/20 09:34:21;;;;;;;7.80;3.97;;;;;;;33.21;57.33;100741.84;4942765;28;70282;-43
2023/12/20 09:36:51;;;;;;;4.10;3.70;;;;;;;32.97;60.08;100734.75;4970268;28;67269;-38
2023/12/20 09:39:21;;;;;;;5.85;3.78;;;;;;;32.94;60.83;100749.63;4970964;28;70885;-38
2023/12/20 09:42:02;;;;;;;6.72;3.75;;;;;;;32.77;62.08;100754.97;4957532;28;66353;-40
2023/12/20 09:44:36;;;;;;;3.83;3.40;;;;;;;32.81;60.82;100755.31;4936004;28;68837;-40
2023/12/20 09:47:08;;;;;;;8.10;4.53;;;;;;;32.81;59.93;100760.72;4941860;28;65172;-39
2023/12/20 09:49:38;;;;;;;4.63;3.90;;;;;;;32.71;63.23;100769.50;4970148;28;70416;-39
2023/12/20 09:52:11;;;;;;;5.25;4.32;;;;;;;32.88;59.43;100756.84;4966263;28;64961;-39
2023/12/20 09:54:43;;;;;;;4.43;3.90;;;;;;;33.07;58.91;100764.88;4967578;28;70067;-39
2023/12/20 09:57:13;;;;;;;5.40;3.30;;;;;;;33.16;58.56;100782.50;4968020;28;66535;-39
2023/12/20 09:59:43;;;;;;;5.45;4.00;;;;;;;33.18;58.30;100785.78;4964797;28;71182;-40
2023/12/20 10:02:14;;;;;;;5.03;3.63;;;;;;;33.24;58.36;100787.56;4943272;28;65203;-40
2023/12/20 10:04:48;;;;;;;5.82;4.20;;;;;;;33.27;58.24;100800.69;4939267;28;69870;-39
2023/12/20 10:07:18;;;;;;;4.70;4.03;;;;;;;33.24;58.18;100803.88;4947723;28;65953;-39
2023/12/20 10:09:55;;;;;;;5.63;3.80;;;;;;;33.27;58.20;100803.41;4946281;28;69937;-40
2023/12/20 10:12:26;;;;;;;4.88;3.60;;;;;;;33.28;58.18;100805.03;4946207;28;66113;-39
2023/12/20 10:14:57;;;;;;;6.85;3.80;;;;;;;33.28;58.19;100821.34;4964649;28;70262;-41
2023/12/20 10:17:29;;;;;;;3.92;3.40;;;;;;;33.08;58.16;100789.09;4964858;28;65545;-39
2023/12/20 10:19:59;;;;;;;4.10;3.70;;;;;;;33.24;58.16;100825.63;4947934;28;68466;-40
2023/12/20 10:22:29;;;;;;;3.97;3.65;;;;;;;33.24;58.49;100841.94;4962354;28;65867;-38
2023/12/20 10:25:02;;;;;;;4.32;3.63;;;;;;;33.24;58.20;100841.94;4963912;28;69455;-39
2023/12/20 10:27:33;;;;;;;4.10;3.70;;;;;;;33.21;58.54;100830.69;4964631;28;65449;-41
2023/12/20 10:30:04;;;;;;;5.18;4.10;;;;;;;33.22;58.41;100854.09;4946722;28;69790;-39
2023/12/20 10:32:34;;;;;;;9.30;3.90;;;;;;;33.19;58.60;100858.13;4965493;28;66526;-39
2023/12/20 10:35:05;;;;;;;8.45;5.45;;;;;;;32.84;63.23;100871.63;4958287;28;69615;-39
2023/12/20 10:37:37;;;;;;;12.18;6.38;;;;;;;32.69;64.36;100874.81;4967351;28;66767;-37
2023/12/20 10:40:08;;;;;;;12.27;7.63;;;;;;;32.60;65.13;100873.50;4964060;28;69936;-38
2023/12/20 10:42:40;;;;;;;11.15;7.55;;;;;;;32.50;65.38;100876.75;4953772;28;64561;-40
2023/12/20 10:45:10;;;;;;;;;;;;;;;32.22;66.70;100877.34;4950031;28;68560;-37
2023/12/20 10:47:42;;;;;;;9.25;7.72;;;;;;;32.37;65.42;100885.88;4960867;28;66279;-38
2023/12/20 10:50:13;;;;;;;14.60;7.55;;;;;;;32.38;63.75;100884.03;4965651;28;70289;-37
2023/12/20 10:52:45;;;;;;;22.25;8.45;;;;;;;31.79;66.51;100797.75;4972205;28;66782;-38
2023/12/20 10:55:16;;;;;;;21.65;9.55;;;;;;;32.31;66.85;100892.25;4950774;28;69813;-40
2023/12/20 10:57:50;;;;;;;17.08;8.80;;;;;;;32.27;66.90;100893.78;4941618;28;65983;-38
2023/12/20 11:00:23;;;;;;;9.15;8.18;;;;;;;32.25;67.76;100901.31;4967730;28;69566;-39
2023/12/20 11:02:55;;;;;;;8.40;7.60;;;;;;;32.13;67.87;100884.97;4963697;28;65683;-38
2023/12/20 11:05:34;;;;;;;10.75;7.05;;;;;;;32.25;67.47;100906.75;4968054;28;70458;-39
2023/12/20 11:08:13;;;;;;;6.97;6.28;;;;;;;32.11;63.54;100838.25;4973209;28;65774;-38
2023/12/20 11:11:11;;;;;;;8.07;5.30;;;;;;;32.22;62.88;100855.63;4948196;28;69981;-38
2023/12/20 11:13:54;;;;;;;8.02;6.20;;;;;;;32.67;62.52;100923.09;4963555;28;66422;-38
2023/12/20 11:16:25;;;;;;;9.02;5.97;;;;;;;32.70;62.02;100912.59;4967991;28;70132;-39
2023/12/20 11:19:07;;;;;;;6.93;6.25;;;;;;;32.63;61.66;100911.06;4949949;28;66202;-39
2023/12/20 11:21:37;;;;;;;;;;;;;;;32.53;63.84;100936.03;4969809;28;69905;-39
2023/12/20 11:24:08;;;;;;;6.97;6.30;;;;;;;32.76;61.93;100938.00;4952429;28;66234;-43
2023/12/20 11:26:48;;;;;;;6.55;5.90;;;;;;;32.77;62.11;100944.28;4942881;28;69259;-40
2023/12/20 11:29:35;;;;;;;7.78;6.68;;;;;;;32.75;62.40;100947.22;4962326;28;66577;-39
2023/12/20 11:32:28;;;;;;;12.35;6.47;;;;;;;32.77;62.47;100945.09;4948437;28;69908;-39
2023/12/20 11:35:10;;;;;;;7.93;6.35;;;;;;;32.56;61.57;100900.28;4938751;28;66104;-38
2023/12/20 11:37:43;;;;;;;;;;;;;;;32.58;63.60;100957.09;4962354;28;69967;-38
2023/12/20 11:40:16;;;;;;;7.90;7.05;;;;;;;32.02;61.41;100824.16;4952838;28;67512;-39
2023/12/20 11:42:51;;;;;;;8.27;7.45;;;;;;;32.40;61.72;100882.75;4974067;28;70334;-39